sensor_id;sensor_type;location;lat;lon;timestamp;P1;durP1;ratioP1;P2;durP2;ratioP2
28086;SDS011;15392;48.912;8.380;2023-05-07T00:01:56;0.38;;;0.20;;
28086;SDS011;15392;48.912;8.380;2023-05-07T00:04:22;0.30;;;0.30;;
28086;SDS011;15392;48.912;8.380;2023-05-07T00:06:47;0.20;;;0.20;;
28086;SDS011;15392;48.912;8.380;2023-05-07T00:09:13;0.20;;;0.20;;
28086;SDS011;15392;48.912;8.380;2023-05-07T00:11:39;0.40;;;0.40;;
28086;SDS011;15392;48.912;8.380;2023-05-07T00:14:05;0.20;;;0.20;;
28086;SDS011;15392;48.912;8.380;2023-05-07T00:16:31;0.20;;;0.20;;
28086;SDS011;15392;48.912;8.380;2023-05-07T00:18:57;0.20;;;0.20;;
28086;SDS011;15392;48.912;8.380;2023-05-07T00:21:22;0.20;;;0.20;;
28086;SDS011;15392;48.912;8.380;2023-05-07T00:23:51;0.30;;;0.30;;
28086;SDS011;15392;48.912;8.380;2023-05-07T00:26:18;0.25;;;0.25;;
28086;SDS011;15392;48.912;8.380;2023-05-07T00:28:44;0.17;;;0.17;;
28086;SDS011;15392;48.912;8.380;2023-05-07T00:31:10;0.20;;;0.20;;
28086;SDS011;15392;48.912;8.380;2023-05-07T00:33:35;0.30;;;0.20;;
28086;SDS011;15392;48.912;8.380;2023-05-07T00:36:01;0.30;;;0.30;;
28086;SDS011;15392;48.912;8.380;2023-05-07T00:38:27;0.17;;;0.17;;
28086;SDS011;15392;48.912;8.380;2023-05-07T00:40:53;0.20;;;0.20;;
28086;SDS011;15392;48.912;8.380;2023-05-07T00:43:18;0.20;;;0.20;;
28086;SDS011;15392;48.912;8.380;2023-05-07T00:45:44;1.77;;;0.20;;
28086;SDS011;15392;48.912;8.380;2023-05-07T00:48:10;0.30;;;0.30;;
28086;SDS011;15392;48.912;8.380;2023-05-07T00:50:36;0.20;;;0.20;;
28086;SDS011;15392;48.912;8.380;2023-05-07T00:53:02;0.32;;;0.20;;
28086;SDS011;15392;48.912;8.380;2023-05-07T00:55:28;0.20;;;0.20;;
28086;SDS011;15392;48.912;8.380;2023-05-07T00:57:55;0.20;;;0.20;;
28086;SDS011;15392;48.912;8.380;2023-05-07T01:00:20;0.20;;;0.20;;
28086;SDS011;15392;48.912;8.380;2023-05-07T01:02:47;0.55;;;0.32;;
28086;SDS011;15392;48.912;8.380;2023-05-07T01:05:13;0.20;;;0.20;;
28086;SDS011;15392;48.912;8.380;2023-05-07T01:07:42;0.23;;;0.20;;
28086;SDS011;15392;48.912;8.380;2023-05-07T01:10:08;0.17;;;0.17;;
28086;SDS011;15392;48.912;8.380;2023-05-07T01:12:35;0.20;;;0.20;;
28086;SDS011;15392;48.912;8.380;2023-05-07T01:15:03;0.28;;;0.28;;
28086;SDS011;15392;48.912;8.380;2023-05-07T01:17:37;0.20;;;0.20;;
28086;SDS011;15392;48.912;8.380;2023-05-07T01:20:05;0.20;;;0.20;;
28086;SDS011;15392;48.912;8.380;2023-05-07T01:22:33;0.25;;;0.25;;
28086;SDS011;15392;48.912;8.380;2023-05-07T01:25:04;0.10;;;0.10;;
28086;SDS011;15392;48.912;8.380;2023-05-07T01:27:31;0.20;;;0.20;;
28086;SDS011;15392;48.912;8.380;2023-05-07T01:29:58;0.20;;;0.20;;
28086;SDS011;15392;48.912;8.380;2023-05-07T01:32:43;0.20;;;0.20;;
28086;SDS011;15392;48.912;8.380;2023-05-07T01:35:18;0.20;;;0.20;;
28086;SDS011;15392;48.912;8.380;2023-05-07T01:40:13;0.10;;;0.10;;
28086;SDS011;15392;48.912;8.380;2023-05-07T01:42:39;0.20;;;0.20;;
28086;SDS011;15392;48.912;8.380;2023-05-07T01:45:08;0.30;;;0.30;;
28086;SDS011;15392;48.912;8.380;2023-05-07T01:47:35;0.10;;;0.10;;
28086;SDS011;15392;48.912;8.380;2023-05-07T01:50:03;0.20;;;0.20;;
28086;SDS011;15392;48.912;8.380;2023-05-07T01:52:31;0.13;;;0.13;;
28086;SDS011;15392;48.912;8.380;2023-05-07T01:54:57;0.30;;;0.22;;
28086;SDS011;15392;48.912;8.380;2023-05-07T01:57:22;0.20;;;0.20;;
28086;SDS011;15392;48.912;8.380;2023-05-07T01:59:48;0.20;;;0.20;;
28086;SDS011;15392;48.912;8.380;2023-05-07T02:02:14;0.20;;;0.20;;
28086;SDS011;15392;48.912;8.380;2023-05-07T02:04:40;0.93;;;0.22;;
28086;SDS011;15392;48.912;8.380;2023-05-07T02:07:05;0.20;;;0.20;;
28086;SDS011;15392;48.912;8.380;2023-05-07T02:09:31;0.20;;;0.20;;
28086;SDS011;15392;48.912;8.380;2023-05-07T02:11:57;0.28;;;0.28;;
28086;SDS011;15392;48.912;8.380;2023-05-07T02:14:22;0.20;;;0.20;;
28086;SDS011;15392;48.912;8.380;2023-05-07T02:16:48;0.30;;;0.30;;
28086;SDS011;15392;48.912;8.380;2023-05-07T02:19:14;0.20;;;0.20;;
28086;SDS011;15392;48.912;8.380;2023-05-07T02:21:40;0.30;;;0.30;;
28086;SDS011;15392;48.912;8.380;2023-05-07T02:24:05;0.90;;;0.30;;
28086;SDS011;15392;48.912;8.380;2023-05-07T02:26:31;0.20;;;0.20;;
28086;SDS011;15392;48.912;8.380;2023-05-07T02:28:57;0.43;;;0.30;;
28086;SDS011;15392;48.912;8.380;2023-05-07T02:31:23;0.20;;;0.20;;
28086;SDS011;15392;48.912;8.380;2023-05-07T02:33:48;0.20;;;0.20;;
28086;SDS011;15392;48.912;8.380;2023-05-07T02:36:15;0.20;;;0.20;;
28086;SDS011;15392;48.912;8.380;2023-05-07T02:38:40;0.52;;;0.20;;
28086;SDS011;15392;48.912;8.380;2023-05-07T02:41:06;0.20;;;0.20;;
28086;SDS011;15392;48.912;8.380;2023-05-07T02:43:37;0.20;;;0.20;;
28086;SDS011;15392;48.912;8.380;2023-05-07T02:46:19;0.10;;;0.10;;
28086;SDS011;15392;48.912;8.380;2023-05-07T02:48:44;0.25;;;0.25;;
28086;SDS011;15392;48.912;8.380;2023-05-07T02:51:10;0.60;;;0.20;;
28086;SDS011;15392;48.912;8.380;2023-05-07T02:53:36;1.17;;;0.30;;
28086;SDS011;15392;48.912;8.380;2023-05-07T02:56:02;0.20;;;0.20;;
28086;SDS011;15392;48.912;8.380;2023-05-07T02:58:28;0.20;;;0.20;;
28086;SDS011;15392;48.912;8.380;2023-05-07T03:00:54;0.10;;;0.10;;
28086;SDS011;15392;48.912;8.380;2023-05-07T03:03:20;0.17;;;0.17;;
28086;SDS011;15392;48.912;8.380;2023-05-07T03:05:46;0.25;;;0.25;;
28086;SDS011;15392;48.912;8.380;2023-05-07T03:08:12;0.25;;;0.25;;
28086;SDS011;15392;48.912;8.380;2023-05-07T03:10:38;0.20;;;0.20;;
28086;SDS011;15392;48.912;8.380;2023-05-07T03:13:04;0.30;;;0.30;;
28086;SDS011;15392;48.912;8.380;2023-05-07T03:15:30;0.93;;;0.35;;
28086;SDS011;15392;48.912;8.380;2023-05-07T03:17:56;0.30;;;0.30;;
28086;SDS011;15392;48.912;8.380;2023-05-07T03:20:22;0.35;;;0.30;;
28086;SDS011;15392;48.912;8.380;2023-05-07T03:22:47;0.30;;;0.30;;
28086;SDS011;15392;48.912;8.380;2023-05-07T03:25:13;0.30;;;0.30;;
28086;SDS011;15392;48.912;8.380;2023-05-07T03:27:39;0.20;;;0.20;;
28086;SDS011;15392;48.912;8.380;2023-05-07T03:30:07;0.30;;;0.30;;
28086;SDS011;15392;48.912;8.380;2023-05-07T03:32:34;0.30;;;0.30;;
28086;SDS011;15392;48.912;8.380;2023-05-07T03:35:00;0.20;;;0.20;;
28086;SDS011;15392;48.912;8.380;2023-05-07T03:37:27;0.20;;;0.20;;
28086;SDS011;15392;48.912;8.380;2023-05-07T03:39:53;0.20;;;0.20;;
28086;SDS011;15392;48.912;8.380;2023-05-07T03:42:18;0.20;;;0.20;;
28086;SDS011;15392;48.912;8.380;2023-05-07T03:44:44;0.20;;;0.20;;
28086;SDS011;15392;48.912;8.380;2023-05-07T03:47:10;0.20;;;0.20;;
28086;SDS011;15392;48.912;8.380;2023-05-07T03:49:36;0.30;;;0.30;;
28086;SDS011;15392;48.912;8.380;2023-05-07T03:52:02;0.45;;;0.45;;
28086;SDS011;15392;48.912;8.380;2023-05-07T03:54:28;0.30;;;0.30;;
28086;SDS011;15392;48.912;8.380;2023-05-07T03:56:55;0.30;;;0.30;;
28086;SDS011;15392;48.912;8.380;2023-05-07T03:59:21;0.28;;;0.28;;
28086;SDS011;15392;48.912;8.380;2023-05-07T04:01:47;0.30;;;0.30;;
28086;SDS011;15392;48.912;8.380;2023-05-07T04:04:14;0.30;;;0.30;;
28086;SDS011;15392;48.912;8.380;2023-05-07T04:06:40;0.20;;;0.20;;
28086;SDS011;15392;48.912;8.380;2023-05-07T04:09:06;0.30;;;0.30;;
28086;SDS011;15392;48.912;8.380;2023-05-07T04:11:32;0.20;;;0.20;;
28086;SDS011;15392;48.912;8.380;2023-05-07T04:13:58;0.30;;;0.30;;
28086;SDS011;15392;48.912;8.380;2023-05-07T04:16:24;0.20;;;0.20;;
28086;SDS011;15392;48.912;8.380;2023-05-07T04:18:50;0.38;;;0.38;;
28086;SDS011;15392;48.912;8.380;2023-05-07T04:21:16;0.40;;;0.40;;
28086;SDS011;15392;48.912;8.380;2023-05-07T04:23:46;0.30;;;0.30;;
28086;SDS011;15392;48.912;8.380;2023-05-07T04:26:13;0.30;;;0.30;;
28086;SDS011;15392;48.912;8.380;2023-05-07T04:28:40;0.20;;;0.20;;
28086;SDS011;15392;48.912;8.380;2023-05-07T04:31:06;0.20;;;0.20;;
28086;SDS011;15392;48.912;8.380;2023-05-07T04:33:32;0.20;;;0.20;;
28086;SDS011;15392;48.912;8.380;2023-05-07T04:36:01;0.20;;;0.20;;
28086;SDS011;15392;48.912;8.380;2023-05-07T04:38:28;0.25;;;0.25;;
28086;SDS011;15392;48.912;8.380;2023-05-07T04:40:56;0.30;;;0.30;;
28086;SDS011;15392;48.912;8.380;2023-05-07T04:43:23;0.43;;;0.30;;
28086;SDS011;15392;48.912;8.380;2023-05-07T04:45:50;0.20;;;0.20;;
28086;SDS011;15392;48.912;8.380;2023-05-07T04:48:17;0.30;;;0.30;;
28086;SDS011;15392;48.912;8.380;2023-05-07T04:50:44;0.30;;;0.30;;
28086;SDS011;15392;48.912;8.380;2023-05-07T04:53:13;0.25;;;0.25;;
28086;SDS011;15392;48.912;8.380;2023-05-07T04:55:39;0.47;;;0.30;;
28086;SDS011;15392;48.912;8.380;2023-05-07T04:58:05;0.20;;;0.20;;
28086;SDS011;15392;48.912;8.380;2023-05-07T05:00:32;0.63;;;0.30;;
28086;SDS011;15392;48.912;8.380;2023-05-07T05:02:58;0.20;;;0.20;;
28086;SDS011;15392;48.912;8.380;2023-05-07T05:05:24;0.20;;;0.20;;
28086;SDS011;15392;48.912;8.380;2023-05-07T05:07:49;0.22;;;0.22;;
28086;SDS011;15392;48.912;8.380;2023-05-07T05:10:16;0.30;;;0.30;;
28086;SDS011;15392;48.912;8.380;2023-05-07T05:12:42;0.30;;;0.30;;
28086;SDS011;15392;48.912;8.380;2023-05-07T05:15:10;0.30;;;0.20;;
28086;SDS011;15392;48.912;8.380;2023-05-07T05:17:37;0.30;;;0.30;;
28086;SDS011;15392;48.912;8.380;2023-05-07T05:20:04;0.20;;;0.20;;
28086;SDS011;15392;48.912;8.380;2023-05-07T05:22:31;0.20;;;0.20;;
28086;SDS011;15392;48.912;8.380;2023-05-07T05:24:57;1.08;;;0.40;;
28086;SDS011;15392;48.912;8.380;2023-05-07T05:27:23;0.30;;;0.30;;
28086;SDS011;15392;48.912;8.380;2023-05-07T05:29:49;0.30;;;0.30;;
28086;SDS011;15392;48.912;8.380;2023-05-07T05:32:14;0.40;;;0.40;;
28086;SDS011;15392;48.912;8.380;2023-05-07T05:34:40;0.30;;;0.30;;
28086;SDS011;15392;48.912;8.380;2023-05-07T05:37:06;0.30;;;0.30;;
28086;SDS011;15392;48.912;8.380;2023-05-07T05:39:31;0.50;;;0.30;;
28086;SDS011;15392;48.912;8.380;2023-05-07T05:41:57;0.20;;;0.20;;
28086;SDS011;15392;48.912;8.380;2023-05-07T05:44:23;0.28;;;0.28;;
28086;SDS011;15392;48.912;8.380;2023-05-07T05:46:49;0.30;;;0.30;;
28086;SDS011;15392;48.912;8.380;2023-05-07T05:49:15;0.20;;;0.20;;
28086;SDS011;15392;48.912;8.380;2023-05-07T05:51:40;0.40;;;0.40;;
28086;SDS011;15392;48.912;8.380;2023-05-07T05:54:06;0.30;;;0.30;;
28086;SDS011;15392;48.912;8.380;2023-05-07T05:56:32;0.30;;;0.30;;
28086;SDS011;15392;48.912;8.380;2023-05-07T05:58:58;0.30;;;0.30;;
28086;SDS011;15392;48.912;8.380;2023-05-07T06:01:25;0.25;;;0.25;;
28086;SDS011;15392;48.912;8.380;2023-05-07T06:03:51;0.20;;;0.20;;
28086;SDS011;15392;48.912;8.380;2023-05-07T06:06:17;0.25;;;0.25;;
28086;SDS011;15392;48.912;8.380;2023-05-07T06:08:43;0.20;;;0.20;;
28086;SDS011;15392;48.912;8.380;2023-05-07T06:11:09;0.20;;;0.20;;
28086;SDS011;15392;48.912;8.380;2023-05-07T06:13:35;0.22;;;0.22;;
28086;SDS011;15392;48.912;8.380;2023-05-07T06:16:00;0.20;;;0.20;;
28086;SDS011;15392;48.912;8.380;2023-05-07T06:18:26;0.35;;;0.35;;
28086;SDS011;15392;48.912;8.380;2023-05-07T06:20:52;0.32;;;0.32;;
28086;SDS011;15392;48.912;8.380;2023-05-07T06:23:18;0.30;;;0.30;;
28086;SDS011;15392;48.912;8.380;2023-05-07T06:25:50;0.50;;;0.50;;
28086;SDS011;15392;48.912;8.380;2023-05-07T06:28:16;0.22;;;0.22;;
28086;SDS011;15392;48.912;8.380;2023-05-07T06:30:42;0.20;;;0.20;;
28086;SDS011;15392;48.912;8.380;2023-05-07T06:33:08;0.20;;;0.20;;
28086;SDS011;15392;48.912;8.380;2023-05-07T06:35:34;0.32;;;0.32;;
28086;SDS011;15392;48.912;8.380;2023-05-07T06:37:59;0.30;;;0.30;;
28086;SDS011;15392;48.912;8.380;2023-05-07T06:40:26;0.20;;;0.20;;
28086;SDS011;15392;48.912;8.380;2023-05-07T06:42:52;0.20;;;0.20;;
28086;SDS011;15392;48.912;8.380;2023-05-07T06:45:19;0.80;;;0.30;;
28086;SDS011;15392;48.912;8.380;2023-05-07T06:47:45;0.40;;;0.30;;
28086;SDS011;15392;48.912;8.380;2023-05-07T06:50:11;0.30;;;0.30;;
28086;SDS011;15392;48.912;8.380;2023-05-07T06:52:37;0.30;;;0.30;;
28086;SDS011;15392;48.912;8.380;2023-05-07T06:55:03;0.30;;;0.30;;
28086;SDS011;15392;48.912;8.380;2023-05-07T06:57:29;0.22;;;0.22;;
28086;SDS011;15392;48.912;8.380;2023-05-07T06:59:55;0.20;;;0.20;;
28086;SDS011;15392;48.912;8.380;2023-05-07T07:02:21;0.20;;;0.20;;
28086;SDS011;15392;48.912;8.380;2023-05-07T07:04:47;0.20;;;0.20;;
28086;SDS011;15392;48.912;8.380;2023-05-07T07:07:12;0.90;;;0.90;;
28086;SDS011;15392;48.912;8.380;2023-05-07T07:09:38;0.40;;;0.40;;
28086;SDS011;15392;48.912;8.380;2023-05-07T07:12:04;0.40;;;0.40;;
28086;SDS011;15392;48.912;8.380;2023-05-07T07:14:30;0.90;;;0.35;;
28086;SDS011;15392;48.912;8.380;2023-05-07T07:16:56;0.30;;;0.30;;
28086;SDS011;15392;48.912;8.380;2023-05-07T07:19:22;0.35;;;0.35;;
28086;SDS011;15392;48.912;8.380;2023-05-07T07:21:48;0.35;;;0.35;;
28086;SDS011;15392;48.912;8.380;2023-05-07T07:24:14;0.57;;;0.57;;
28086;SDS011;15392;48.912;8.380;2023-05-07T07:26:46;0.45;;;0.45;;
28086;SDS011;15392;48.912;8.380;2023-05-07T07:29:12;0.40;;;0.40;;
28086;SDS011;15392;48.912;8.380;2023-05-07T07:31:38;0.38;;;0.38;;
28086;SDS011;15392;48.912;8.380;2023-05-07T07:34:04;0.30;;;0.30;;
28086;SDS011;15392;48.912;8.380;2023-05-07T07:36:30;0.40;;;0.40;;
28086;SDS011;15392;48.912;8.380;2023-05-07T07:38:55;0.30;;;0.30;;
28086;SDS011;15392;48.912;8.380;2023-05-07T07:41:21;0.40;;;0.40;;
28086;SDS011;15392;48.912;8.380;2023-05-07T07:43:47;0.40;;;0.40;;
28086;SDS011;15392;48.912;8.380;2023-05-07T07:46:13;0.50;;;0.50;;
28086;SDS011;15392;48.912;8.380;2023-05-07T07:48:39;0.50;;;0.50;;
28086;SDS011;15392;48.912;8.380;2023-05-07T07:51:05;0.60;;;0.60;;
28086;SDS011;15392;48.912;8.380;2023-05-07T07:53:30;0.57;;;0.57;;
28086;SDS011;15392;48.912;8.380;2023-05-07T07:55:56;0.50;;;0.50;;
28086;SDS011;15392;48.912;8.380;2023-05-07T07:58:22;0.60;;;0.60;;
28086;SDS011;15392;48.912;8.380;2023-05-07T08:00:49;0.93;;;0.57;;
28086;SDS011;15392;48.912;8.380;2023-05-07T08:03:16;0.50;;;0.50;;
28086;SDS011;15392;48.912;8.380;2023-05-07T08:05:41;0.40;;;0.40;;
28086;SDS011;15392;48.912;8.380;2023-05-07T08:08:08;0.40;;;0.40;;
28086;SDS011;15392;48.912;8.380;2023-05-07T08:10:34;0.40;;;0.40;;
28086;SDS011;15392;48.912;8.380;2023-05-07T08:13:03;0.40;;;0.40;;
28086;SDS011;15392;48.912;8.380;2023-05-07T08:15:29;0.50;;;0.50;;
28086;SDS011;15392;48.912;8.380;2023-05-07T08:17:55;0.50;;;0.50;;
28086;SDS011;15392;48.912;8.380;2023-05-07T08:20:22;0.40;;;0.40;;
28086;SDS011;15392;48.912;8.380;2023-05-07T08:22:48;0.35;;;0.35;;
28086;SDS011;15392;48.912;8.380;2023-05-07T08:25:14;0.52;;;0.52;;
28086;SDS011;15392;48.912;8.380;2023-05-07T08:27:40;0.50;;;0.50;;
28086;SDS011;15392;48.912;8.380;2023-05-07T08:30:06;0.50;;;0.50;;
28086;SDS011;15392;48.912;8.380;2023-05-07T08:32:33;1.23;;;0.50;;
28086;SDS011;15392;48.912;8.380;2023-05-07T08:34:58;0.50;;;0.50;;
28086;SDS011;15392;48.912;8.380;2023-05-07T08:37:25;0.50;;;0.50;;
28086;SDS011;15392;48.912;8.380;2023-05-07T08:39:50;0.75;;;0.60;;
28086;SDS011;15392;48.912;8.380;2023-05-07T08:42:16;0.47;;;0.47;;
28086;SDS011;15392;48.912;8.380;2023-05-07T08:44:43;0.40;;;0.40;;
28086;SDS011;15392;48.912;8.380;2023-05-07T08:47:12;0.47;;;0.47;;
28086;SDS011;15392;48.912;8.380;2023-05-07T08:49:37;0.50;;;0.50;;
28086;SDS011;15392;48.912;8.380;2023-05-07T08:52:04;0.60;;;0.60;;
28086;SDS011;15392;48.912;8.380;2023-05-07T08:54:31;0.60;;;0.60;;
28086;SDS011;15392;48.912;8.380;2023-05-07T08:56:57;0.50;;;0.50;;
28086;SDS011;15392;48.912;8.380;2023-05-07T08:59:23;0.60;;;0.60;;
28086;SDS011;15392;48.912;8.380;2023-05-07T09:01:48;0.45;;;0.45;;
28086;SDS011;15392;48.912;8.380;2023-05-07T09:04:14;0.60;;;0.60;;
28086;SDS011;15392;48.912;8.380;2023-05-07T09:06:40;0.50;;;0.50;;
28086;SDS011;15392;48.912;8.380;2023-05-07T09:09:07;0.40;;;0.40;;
28086;SDS011;15392;48.912;8.380;2023-05-07T09:11:33;0.30;;;0.30;;
28086;SDS011;15392;48.912;8.380;2023-05-07T09:13:59;0.60;;;0.38;;
28086;SDS011;15392;48.912;8.380;2023-05-07T09:16:28;0.52;;;0.52;;
28086;SDS011;15392;48.912;8.380;2023-05-07T09:18:56;0.40;;;0.40;;
28086;SDS011;15392;48.912;8.380;2023-05-07T09:21:24;0.40;;;0.40;;
28086;SDS011;15392;48.912;8.380;2023-05-07T09:23:51;0.47;;;0.47;;
28086;SDS011;15392;48.912;8.380;2023-05-07T09:26:18;0.60;;;0.60;;
28086;SDS011;15392;48.912;8.380;2023-05-07T09:28:46;0.50;;;0.50;;
28086;SDS011;15392;48.912;8.380;2023-05-07T09:31:12;0.50;;;0.50;;
28086;SDS011;15392;48.912;8.380;2023-05-07T09:33:38;1.05;;;0.60;;
28086;SDS011;15392;48.912;8.380;2023-05-07T09:36:08;0.50;;;0.50;;
28086;SDS011;15392;48.912;8.380;2023-05-07T09:38:35;0.47;;;0.47;;
28086;SDS011;15392;48.912;8.380;2023-05-07T09:41:03;0.60;;;0.60;;
28086;SDS011;15392;48.912;8.380;2023-05-07T09:43:35;0.50;;;0.50;;
28086;SDS011;15392;48.912;8.380;2023-05-07T09:46:05;0.73;;;0.70;;
28086;SDS011;15392;48.912;8.380;2023-05-07T09:48:38;0.52;;;0.52;;
28086;SDS011;15392;48.912;8.380;2023-05-07T09:51:10;0.50;;;0.50;;
28086;SDS011;15392;48.912;8.380;2023-05-07T09:53:48;0.45;;;0.45;;
28086;SDS011;15392;48.912;8.380;2023-05-07T09:56:17;0.50;;;0.50;;
28086;SDS011;15392;48.912;8.380;2023-05-07T09:58:45;0.50;;;0.50;;
28086;SDS011;15392;48.912;8.380;2023-05-07T10:01:12;0.43;;;0.43;;
28086;SDS011;15392;48.912;8.380;2023-05-07T10:03:42;0.47;;;0.47;;
28086;SDS011;15392;48.912;8.380;2023-05-07T10:06:10;0.32;;;0.30;;
28086;SDS011;15392;48.912;8.380;2023-05-07T10:08:37;0.40;;;0.40;;
28086;SDS011;15392;48.912;8.380;2023-05-07T10:11:03;0.50;;;0.50;;
28086;SDS011;15392;48.912;8.380;2023-05-07T10:13:31;0.40;;;0.40;;
28086;SDS011;15392;48.912;8.380;2023-05-07T10:16:02;0.60;;;0.60;;
28086;SDS011;15392;48.912;8.380;2023-05-07T10:18:30;0.50;;;0.50;;
28086;SDS011;15392;48.912;8.380;2023-05-07T10:21:07;0.50;;;0.50;;
28086;SDS011;15392;48.912;8.380;2023-05-07T10:23:39;0.40;;;0.40;;
28086;SDS011;15392;48.912;8.380;2023-05-07T10:26:06;0.30;;;0.30;;
28086;SDS011;15392;48.912;8.380;2023-05-07T10:28:35;0.30;;;0.30;;
28086;SDS011;15392;48.912;8.380;2023-05-07T10:31:08;0.40;;;0.40;;
28086;SDS011;15392;48.912;8.380;2023-05-07T10:33:58;0.30;;;0.30;;
28086;SDS011;15392;48.912;8.380;2023-05-07T10:36:26;0.38;;;0.32;;
28086;SDS011;15392;48.912;8.380;2023-05-07T10:38:52;1.15;;;1.15;;
28086;SDS011;15392;48.912;8.380;2023-05-07T10:41:19;0.80;;;0.80;;
28086;SDS011;15392;48.912;8.380;2023-05-07T10:43:46;0.80;;;0.80;;
28086;SDS011;15392;48.912;8.380;2023-05-07T10:46:15;0.40;;;0.40;;
28086;SDS011;15392;48.912;8.380;2023-05-07T10:51:33;0.30;;;0.30;;
28086;SDS011;15392;48.912;8.380;2023-05-07T10:56:35;0.43;;;0.43;;
28086;SDS011;15392;48.912;8.380;2023-05-07T11:01:53;0.25;;;0.25;;
28086;SDS011;15392;48.912;8.380;2023-05-07T11:04:22;0.22;;;0.22;;
28086;SDS011;15392;48.912;8.380;2023-05-07T11:15:11;0.20;;;0.20;;
28086;SDS011;15392;48.912;8.380;2023-05-07T11:17:53;0.20;;;0.20;;
28086;SDS011;15392;48.912;8.380;2023-05-07T11:26:08;0.50;;;0.50;;
28086;SDS011;15392;48.912;8.380;2023-05-07T11:28:39;0.30;;;0.30;;
28086;SDS011;15392;48.912;8.380;2023-05-07T11:31:07;0.20;;;0.20;;
28086;SDS011;15392;48.912;8.380;2023-05-07T11:33:34;0.30;;;0.30;;
28086;SDS011;15392;48.912;8.380;2023-05-07T11:36:03;0.40;;;0.40;;
28086;SDS011;15392;48.912;8.380;2023-05-07T11:38:30;0.20;;;0.20;;
28086;SDS011;15392;48.912;8.380;2023-05-07T11:41:00;0.30;;;0.30;;
28086;SDS011;15392;48.912;8.380;2023-05-07T11:43:26;0.20;;;0.20;;
28086;SDS011;15392;48.912;8.380;2023-05-07T11:45:52;0.52;;;0.35;;
28086;SDS011;15392;48.912;8.380;2023-05-07T11:48:18;0.22;;;0.20;;
28086;SDS011;15392;48.912;8.380;2023-05-07T11:50:54;0.20;;;0.20;;
28086;SDS011;15392;48.912;8.380;2023-05-07T11:53:27;0.20;;;0.20;;
28086;SDS011;15392;48.912;8.380;2023-05-07T11:56:05;0.30;;;0.30;;
28086;SDS011;15392;48.912;8.380;2023-05-07T11:58:35;1.67;;;0.30;;
28086;SDS011;15392;48.912;8.380;2023-05-07T12:01:02;0.30;;;0.20;;
28086;SDS011;15392;48.912;8.380;2023-05-07T12:03:28;0.30;;;0.30;;
28086;SDS011;15392;48.912;8.380;2023-05-07T12:05:54;0.15;;;0.15;;
28086;SDS011;15392;48.912;8.380;2023-05-07T12:08:24;0.10;;;0.10;;
28086;SDS011;15392;48.912;8.380;2023-05-07T12:10:50;0.30;;;0.30;;
28086;SDS011;15392;48.912;8.380;2023-05-07T12:13:21;0.20;;;0.20;;
28086;SDS011;15392;48.912;8.380;2023-05-07T12:15:51;0.28;;;0.28;;
28086;SDS011;15392;48.912;8.380;2023-05-07T12:18:18;0.20;;;0.20;;
28086;SDS011;15392;48.912;8.380;2023-05-07T12:20:45;0.40;;;0.40;;
28086;SDS011;15392;48.912;8.380;2023-05-07T12:23:11;0.28;;;0.28;;
28086;SDS011;15392;48.912;8.380;2023-05-07T12:25:38;0.40;;;0.40;;
28086;SDS011;15392;48.912;8.380;2023-05-07T12:28:14;0.30;;;0.30;;
28086;SDS011;15392;48.912;8.380;2023-05-07T12:30:42;0.30;;;0.30;;
28086;SDS011;15392;48.912;8.380;2023-05-07T12:33:10;0.28;;;0.28;;
28086;SDS011;15392;48.912;8.380;2023-05-07T12:35:40;1.38;;;0.20;;
28086;SDS011;15392;48.912;8.380;2023-05-07T12:38:08;0.30;;;0.30;;
28086;SDS011;15392;48.912;8.380;2023-05-07T12:40:42;0.30;;;0.30;;
28086;SDS011;15392;48.912;8.380;2023-05-07T12:43:20;0.28;;;0.28;;
28086;SDS011;15392;48.912;8.380;2023-05-07T12:45:56;0.40;;;0.40;;
28086;SDS011;15392;48.912;8.380;2023-05-07T12:48:26;0.20;;;0.20;;
28086;SDS011;15392;48.912;8.380;2023-05-07T12:51:01;0.30;;;0.30;;
28086;SDS011;15392;48.912;8.380;2023-05-07T12:53:28;0.30;;;0.30;;
28086;SDS011;15392;48.912;8.380;2023-05-07T12:55:58;0.38;;;0.38;;
28086;SDS011;15392;48.912;8.380;2023-05-07T12:58:25;0.32;;;0.32;;
28086;SDS011;15392;48.912;8.380;2023-05-07T13:00:53;0.20;;;0.20;;
28086;SDS011;15392;48.912;8.380;2023-05-07T13:03:30;0.20;;;0.20;;
28086;SDS011;15392;48.912;8.380;2023-05-07T13:06:07;0.40;;;0.40;;
28086;SDS011;15392;48.912;8.380;2023-05-07T13:08:38;0.30;;;0.30;;
28086;SDS011;15392;48.912;8.380;2023-05-07T13:11:08;0.30;;;0.30;;
28086;SDS011;15392;48.912;8.380;2023-05-07T13:13:36;0.30;;;0.30;;
28086;SDS011;15392;48.912;8.380;2023-05-07T13:16:04;0.50;;;0.50;;
28086;SDS011;15392;48.912;8.380;2023-05-07T13:18:36;0.30;;;0.30;;
28086;SDS011;15392;48.912;8.380;2023-05-07T13:21:03;0.40;;;0.32;;
28086;SDS011;15392;48.912;8.380;2023-05-07T13:23:29;0.40;;;0.40;;
28086;SDS011;15392;48.912;8.380;2023-05-07T13:25:55;0.47;;;0.47;;
28086;SDS011;15392;48.912;8.380;2023-05-07T13:28:22;0.40;;;0.40;;
28086;SDS011;15392;48.912;8.380;2023-05-07T13:30:49;0.50;;;0.50;;
28086;SDS011;15392;48.912;8.380;2023-05-07T13:33:17;0.38;;;0.32;;
28086;SDS011;15392;48.912;8.380;2023-05-07T13:35:43;0.45;;;0.45;;
28086;SDS011;15392;48.912;8.380;2023-05-07T13:38:09;0.30;;;0.30;;
28086;SDS011;15392;48.912;8.380;2023-05-07T13:40:35;0.35;;;0.35;;
28086;SDS011;15392;48.912;8.380;2023-05-07T13:43:01;0.40;;;0.40;;
28086;SDS011;15392;48.912;8.380;2023-05-07T13:45:27;0.60;;;0.60;;
28086;SDS011;15392;48.912;8.380;2023-05-07T13:50:23;0.40;;;0.40;;
28086;SDS011;15392;48.912;8.380;2023-05-07T13:52:49;0.60;;;0.60;;
28086;SDS011;15392;48.912;8.380;2023-05-07T13:55:19;0.68;;;0.68;;
28086;SDS011;15392;48.912;8.380;2023-05-07T13:57:54;0.60;;;0.60;;
28086;SDS011;15392;48.912;8.380;2023-05-07T14:00:25;0.50;;;0.50;;
28086;SDS011;15392;48.912;8.380;2023-05-07T14:02:52;0.30;;;0.30;;
28086;SDS011;15392;48.912;8.380;2023-05-07T14:05:19;0.20;;;0.10;;
28086;SDS011;15392;48.912;8.380;2023-05-07T14:07:48;0.10;;;0.10;;
28086;SDS011;15392;48.912;8.380;2023-05-07T14:10:17;0.10;;;0.10;;
28086;SDS011;15392;48.912;8.380;2023-05-07T14:12:44;0.13;;;0.13;;
28086;SDS011;15392;48.912;8.380;2023-05-07T14:15:10;0.10;;;0.10;;
28086;SDS011;15392;48.912;8.380;2023-05-07T14:17:36;0.10;;;0.05;;
28086;SDS011;15392;48.912;8.380;2023-05-07T14:20:02;0.15;;;0.15;;
28086;SDS011;15392;48.912;8.380;2023-05-07T14:22:29;0.17;;;0.10;;
28086;SDS011;15392;48.912;8.380;2023-05-07T14:24:55;0.98;;;0.10;;
28086;SDS011;15392;48.912;8.380;2023-05-07T14:27:20;0.10;;;0.10;;
28086;SDS011;15392;48.912;8.380;2023-05-07T14:29:46;0.20;;;0.20;;
28086;SDS011;15392;48.912;8.380;2023-05-07T14:32:16;0.10;;;0.10;;
28086;SDS011;15392;48.912;8.380;2023-05-07T14:34:45;0.05;;;0.05;;
28086;SDS011;15392;48.912;8.380;2023-05-07T14:37:11;0.10;;;0.10;;
28086;SDS011;15392;48.912;8.380;2023-05-07T14:39:38;0.20;;;0.20;;
28086;SDS011;15392;48.912;8.380;2023-05-07T14:42:04;0.10;;;0.10;;
28086;SDS011;15392;48.912;8.380;2023-05-07T14:44:30;0.10;;;0.10;;
28086;SDS011;15392;48.912;8.380;2023-05-07T14:46:56;0.20;;;0.17;;
28086;SDS011;15392;48.912;8.380;2023-05-07T14:49:22;0.10;;;0.10;;
28086;SDS011;15392;48.912;8.380;2023-05-07T14:51:48;0.10;;;0.10;;
28086;SDS011;15392;48.912;8.380;2023-05-07T14:54:14;0.10;;;0.10;;
28086;SDS011;15392;48.912;8.380;2023-05-07T14:56:41;0.10;;;0.10;;
28086;SDS011;15392;48.912;8.380;2023-05-07T14:59:07;0.13;;;0.13;;
28086;SDS011;15392;48.912;8.380;2023-05-07T15:01:34;0.10;;;0.10;;
28086;SDS011;15392;48.912;8.380;2023-05-07T15:04:01;0.10;;;0.10;;
28086;SDS011;15392;48.912;8.380;2023-05-07T15:06:29;0.35;;;0.30;;
28086;SDS011;15392;48.912;8.380;2023-05-07T15:08:55;0.30;;;0.30;;
28086;SDS011;15392;48.912;8.380;2023-05-07T15:11:21;0.10;;;0.10;;
28086;SDS011;15392;48.912;8.380;2023-05-07T15:13:47;0.10;;;0.10;;
28086;SDS011;15392;48.912;8.380;2023-05-07T15:16:13;0.20;;;0.20;;